createdAt,value
2023-03-12T00:00:14.145Z,94420.50
2023-03-12T00:02:41.844Z,94411.84
2023-03-12T00:05:10.259Z,94408.56
2023-03-12T00:07:39.458Z,94415.97
2023-03-12T00:10:08.014Z,94417.66
2023-03-12T00:12:35.852Z,94412.50
2023-03-12T00:15:03.568Z,94413.72
2023-03-12T00:17:31.501Z,94417.44
2023-03-12T00:19:59.363Z,94413.09
2023-03-12T00:22:27.067Z,94411.47
2023-03-12T00:24:57.500Z,94412.09
2023-03-12T00:27:26.022Z,94414.16
2023-03-12T00:29:53.680Z,94415.16
2023-03-12T00:32:22.094Z,94413.28
2023-03-12T00:34:51.871Z,94419.69
2023-03-12T00:37:19.624Z,94415.78
2023-03-12T00:39:47.281Z,94422.19
2023-03-12T00:42:16.290Z,94423.41
2023-03-12T00:44:44.488Z,94421.34
2023-03-12T00:47:12.402Z,94420.50
2023-03-12T00:49:40.304Z,94420.50
2023-03-12T00:52:08.177Z,94418.84
2023-03-12T00:54:35.873Z,94418.63
2023-03-12T00:57:03.591Z,94409.16
2023-03-12T00:59:32.990Z,94413.47
2023-03-12T01:02:00.655Z,94422.16
2023-03-12T01:04:28.451Z,94412.81
2023-03-12T01:06:56.484Z,94413.22
2023-03-12T01:09:24.124Z,94417.75
2023-03-12T01:11:51.893Z,94425.81
2023-03-12T01:14:19.564Z,94424.78
2023-03-12T01:16:50.323Z,94425.38
2023-03-12T01:19:19.681Z,94428.44
2023-03-12T01:21:47.376Z,94435.59
2023-03-12T01:24:15.052Z,94424.22
2023-03-12T01:26:42.743Z,94429.41
2023-03-12T01:29:10.428Z,94431.13
2023-03-12T01:31:38.123Z,94428.25
2023-03-12T01:34:07.162Z,94428.28
2023-03-12T01:36:34.831Z,94428.28
2023-03-12T01:39:02.613Z,94427.88
2023-03-12T01:41:33.042Z,94428.31
2023-03-12T01:44:02.763Z,94434.50
2023-03-12T01:46:33.018Z,94426.84
2023-03-12T01:49:05.340Z,94428.13
2023-03-12T01:51:36.916Z,94426.47
2023-03-12T01:54:09.158Z,94425.47
2023-03-12T01:56:37.552Z,94431.88
2023-03-12T01:59:09.060Z,94426.09
2023-03-12T02:01:36.719Z,94417.44
2023-03-12T02:04:04.614Z,94430.06
2023-03-12T02:06:38.519Z,94437.47
2023-03-12T02:09:07.303Z,94439.53
2023-03-12T02:11:35.035Z,94429.03
2023-03-12T02:14:03.024Z,94427.59
2023-03-12T02:16:31.401Z,94445.75
2023-03-12T02:19:01.844Z,94440.38
2023-03-12T02:21:35.224Z,94449.28
2023-03-12T02:24:09.564Z,94440.19
2023-03-12T02:26:39.498Z,94444.94
2023-03-12T02:29:08.490Z,94443.91
2023-03-12T02:31:39.108Z,94443.72
2023-03-12T02:34:07.438Z,94445.16
2023-03-12T02:36:35.081Z,94441.66
2023-03-12T02:39:02.850Z,94448.44
2023-03-12T02:41:32.808Z,94452.59
2023-03-12T02:44:06.470Z,94445.75
2023-03-12T02:46:36.431Z,94447.63
2023-03-12T02:49:04.440Z,94448.22
2023-03-12T02:51:32.315Z,94458.53
2023-03-12T02:53:59.908Z,94455.03
2023-03-12T02:56:29.322Z,94459.16
2023-03-12T02:58:57.055Z,94462.88
2023-03-12T03:01:26.163Z,94460.22
2023-03-12T03:03:54.550Z,94464.13
2023-03-12T03:06:22.399Z,94458.34
2023-03-12T03:08:50.015Z,94460.41
2023-03-12T03:11:17.670Z,94462.47
2023-03-12T03:13:45.281Z,94471.13
2023-03-12T03:16:13.570Z,94463.50
2023-03-12T03:18:42.703Z,94467.84
2023-03-12T03:21:16.352Z,94467.00
2023-03-12T03:23:44.665Z,94458.13
2023-03-12T03:26:12.946Z,94462.47
2023-03-12T03:28:40.684Z,94465.97
2023-03-12T03:31:08.442Z,94478.78
2023-03-12T03:33:37.975Z,94483.28
2023-03-12T03:36:08.521Z,94477.72
2023-03-12T03:38:36.395Z,94476.69
2023-03-12T03:41:04.430Z,94487.59
2023-03-12T03:43:32.152Z,94479.97
2023-03-12T03:46:00.918Z,94480.56
2023-03-12T03:48:28.973Z,94478.06
2023-03-12T03:51:01.024Z,94485.50
2023-03-12T03:53:29.875Z,94487.78
2023-03-12T03:55:57.496Z,94486.97
2023-03-12T03:58:25.182Z,94490.88
2023-03-12T04:00:52.784Z,94493.56
2023-03-12T04:03:20.441Z,94485.09
2023-03-12T04:05:48.180Z,94487.16
2023-03-12T04:08:15.898Z,94489.66
2023-03-12T04:10:44.960Z,94485.91
2023-03-12T04:13:12.566Z,94495.41
2023-03-12T04:15:40.188Z,94502.44
2023-03-12T04:18:08.009Z,94500.78
2023-03-12T04:20:35.640Z,94493.94
2023-03-12T04:23:03.273Z,94494.81
2023-03-12T04:25:31.589Z,94495.84
2023-03-12T04:28:01.269Z,94493.78
2023-03-12T04:30:28.998Z,94490.06
2023-03-12T04:32:56.809Z,94494.00
2023-03-12T04:35:25.027Z,94492.78
2023-03-12T04:37:52.709Z,94493.38
2023-03-12T04:40:20.475Z,94497.13
2023-03-12T04:42:48.244Z,94500.41
2023-03-12T04:45:17.377Z,94491.31
2023-03-12T04:47:45.091Z,94489.09
2023-03-12T04:50:13.719Z,94489.28
2023-03-12T04:52:41.347Z,94483.72
2023-03-12T04:55:09.929Z,94484.72
2023-03-12T04:57:37.571Z,94487.00
2023-03-12T05:00:11.049Z,94483.69
2023-03-12T05:02:40.363Z,94476.25
2023-03-12T05:05:09.181Z,94478.91
2023-03-12T05:07:36.829Z,94480.78
2023-03-12T05:10:05.163Z,94473.38
2023-03-12T05:12:32.812Z,94469.03
2023-03-12T05:15:00.437Z,94463.66
2023-03-12T05:17:28.123Z,94465.72
2023-03-12T05:19:57.180Z,94468.22
2023-03-12T05:22:24.851Z,94469.03
2023-03-12T05:24:52.487Z,94469.03
2023-03-12T05:27:20.493Z,94470.50
2023-03-12T05:29:48.244Z,94472.34
2023-03-12T05:32:15.904Z,94468.03
2023-03-12T05:34:43.645Z,94470.31
2023-03-12T05:37:12.595Z,94476.94
2023-03-12T05:39:46.609Z,94487.66
2023-03-12T05:42:14.920Z,94487.47
2023-03-12T05:44:42.710Z,94493.44
2023-03-12T05:47:10.594Z,94483.75
2023-03-12T05:49:38.193Z,94489.53
2023-03-12T05:52:06.393Z,94483.13
2023-03-12T05:54:35.373Z,94491.38
2023-03-12T05:57:03.446Z,94491.81
2023-03-12T05:59:31.201Z,94490.53
2023-03-12T06:01:58.897Z,94482.28
2023-03-12T06:04:26.524Z,94479.00
2023-03-12T06:06:54.182Z,94478.59
2023-03-12T06:09:21.817Z,94474.03
2023-03-12T06:11:50.816Z,94474.44
2023-03-12T06:14:18.441Z,94462.69
2023-03-12T06:16:46.164Z,94466.81
2023-03-12T06:19:14.839Z,94472.78
2023-03-12T06:21:44.174Z,94469.09
2023-03-12T06:24:11.806Z,94470.34
2023-03-12T06:26:40.491Z,94467.03
2023-03-12T06:29:09.493Z,94471.16
2023-03-12T06:31:38.848Z,94468.28
2023-03-12T06:34:06.866Z,94466.81
2023-03-12T06:36:34.486Z,94470.34
2023-03-12T06:39:02.113Z,94469.50
2023-03-12T06:41:30.305Z,94481.28
2023-03-12T06:43:59.082Z,94469.09
2023-03-12T06:46:28.023Z,94478.63
2023-03-12T06:48:55.778Z,94474.69
2023-03-12T06:51:23.370Z,94476.97
2023-03-12T06:53:51.009Z,94472.81
2023-03-12T06:56:18.805Z,94477.59
2023-03-12T06:58:46.420Z,94481.13
2023-03-12T07:01:14.038Z,94484.41
2023-03-12T07:03:43.012Z,94483.56
2023-03-12T07:06:14.934Z,94483.56
2023-03-12T07:08:43.007Z,94482.56
2023-03-12T07:11:11.391Z,94483.56
2023-03-12T07:13:39.203Z,94484.41
2023-03-12T07:16:07.927Z,94490.59
2023-03-12T07:18:35.638Z,94487.50
2023-03-12T07:21:05.060Z,94488.75
2023-03-12T07:23:32.691Z,94495.16
2023-03-12T07:26:00.429Z,94489.19
2023-03-12T07:28:28.030Z,94486.91
2023-03-12T07:31:01.492Z,94478.00
2023-03-12T07:33:29.397Z,94490.59
2023-03-12T07:35:57.226Z,94494.13
2023-03-12T07:38:26.594Z,94481.53
2023-03-12T07:40:55.279Z,94483.16
2023-03-12T07:43:23.146Z,94485.22
2023-03-12T07:45:50.936Z,94491.41
2023-03-12T07:48:19.829Z,94482.94
2023-03-12T07:50:47.706Z,94480.06
2023-03-12T07:53:15.487Z,94482.94
2023-03-12T07:55:45.026Z,94480.25
2023-03-12T07:58:13.851Z,94482.91
2023-03-12T08:00:41.630Z,94490.97
2023-03-12T08:03:09.505Z,94481.47
2023-03-12T08:05:37.392Z,94487.25
2023-03-12T08:08:05.089Z,94488.88
2023-03-12T08:10:32.770Z,94489.06
2023-03-12T08:13:01.953Z,94497.53
2023-03-12T08:15:29.678Z,94496.47
2023-03-12T08:17:57.361Z,94501.22
2023-03-12T08:20:25.056Z,94507.84
2023-03-12T08:22:52.929Z,94503.25
2023-03-12T08:25:21.178Z,94501.75
2023-03-12T08:27:48.833Z,94507.34
2023-03-12T08:30:18.498Z,94513.97
2023-03-12T08:32:46.139Z,94505.88
2023-03-12T08:35:13.763Z,94515.38
2023-03-12T08:37:41.456Z,94520.56
2023-03-12T08:40:13.254Z,94526.97
2023-03-12T08:42:41.343Z,94527.56
2023-03-12T08:45:10.193Z,94536.28
2023-03-12T08:47:41.614Z,94531.13
2023-03-12T08:50:10.813Z,94533.41
2023-03-12T08:52:38.437Z,94530.56
2023-03-12T08:55:06.952Z,94529.78
2023-03-12T08:57:34.592Z,94540.34
2023-03-12T09:00:02.232Z,94529.81
2023-03-12T09:02:29.835Z,94539.50
2023-03-12T09:04:58.778Z,94532.69
2023-03-12T09:07:26.383Z,94541.81
2023-03-12T09:09:55.523Z,94533.94
2023-03-12T09:12:23.504Z,94544.28
2023-03-12T09:15:03.056Z,94543.06
2023-03-12T09:17:31.688Z,94546.38
2023-03-12T09:20:01.106Z,94548.84
2023-03-12T09:22:30.309Z,94545.31
2023-03-12T09:24:58.007Z,94547.38
2023-03-12T09:27:25.857Z,94552.56
2023-03-12T09:30:00.645Z,94533.13
2023-03-12T09:32:28.970Z,94546.34
2023-03-12T09:34:56.734Z,94543.25
2023-03-12T09:37:25.899Z,94538.06
2023-03-12T09:39:54.273Z,94547.97
2023-03-12T09:42:25.235Z,94543.88
2023-03-12T09:44:53.539Z,94543.47
2023-03-12T09:47:27.471Z,94542.59
2023-03-12T09:49:57.172Z,94546.34
2023-03-12T09:52:29.623Z,94556.91
2023-03-12T09:55:01.371Z,94557.09
2023-03-12T09:57:29.966Z,94554.41
2023-03-12T09:59:57.936Z,94557.53
2023-03-12T10:02:46.642Z,94561.03
2023-03-12T10:05:18.796Z,94554.63
2023-03-12T10:07:48.913Z,94557.72
2023-03-12T10:10:47.082Z,94547.59
2023-03-12T10:13:20.963Z,94560.00
2023-03-12T10:15:58.007Z,94553.78
2023-03-12T10:18:34.435Z,94552.13
2023-03-12T10:21:11.569Z,94549.22
2023-03-12T10:23:49.968Z,94565.53
2023-03-12T10:26:20.275Z,94547.69
2023-03-12T10:28:50.635Z,94547.03
2023-03-12T10:31:22.087Z,94550.34
2023-03-12T10:33:53.652Z,94559.41
2023-03-12T10:36:23.147Z,94550.22
2023-03-12T10:38:52.358Z,94559.50
2023-03-12T10:41:22.577Z,94552.59
2023-03-12T10:43:50.297Z,94555.44
2023-03-12T10:46:36.711Z,94557.22
2023-03-12T10:49:30.451Z,94555.44
2023-03-12T10:52:00.493Z,94536.97
2023-03-12T10:54:35.050Z,94551.81
2023-03-12T10:57:02.733Z,94559.34
2023-03-12T10:59:32.393Z,94545.16
2023-03-12T11:02:00.973Z,94540.91
2023-03-12T11:04:30.751Z,94536.63
2023-03-12T11:07:20.380Z,94542.66
2023-03-12T11:10:18.992Z,94545.88
2023-03-12T11:13:05.697Z,94542.66
2023-03-12T11:15:40.545Z,94544.06
2023-03-12T11:18:27.361Z,94548.38
2023-03-12T11:20:57.490Z,94540.03
2023-03-12T11:23:29.241Z,94544.00
2023-03-12T11:26:00.752Z,94544.94
2023-03-12T11:28:37.421Z,94536.38
2023-03-12T11:31:07.146Z,94540.13
2023-03-12T11:33:35.190Z,94543.72
2023-03-12T11:36:10.231Z,94540.78
2023-03-12T11:38:41.369Z,94540.41
2023-03-12T11:41:22.384Z,94539.72
2023-03-12T11:44:01.632Z,94535.81
2023-03-12T11:46:36.760Z,94542.41
2023-03-12T11:49:13.150Z,94532.50
2023-03-12T11:51:47.584Z,94535.38
2023-03-12T11:54:26.955Z,94531.75
2023-03-12T11:56:57.375Z,94522.59
2023-03-12T11:59:39.601Z,94530.97
2023-03-12T12:02:17.587Z,94523.94
2023-03-12T12:05:06.986Z,94520.53
2023-03-12T12:07:44.719Z,94519.00
2023-03-12T12:10:21.759Z,94520.78
2023-03-12T12:12:57.059Z,94521.72
2023-03-12T12:15:32.724Z,94526.19
2023-03-12T12:18:12.383Z,94529.59
2023-03-12T12:20:45.225Z,94520.28
2023-03-12T12:23:19.951Z,94524.75
2023-03-12T12:25:56.689Z,94520.16
2023-03-12T12:28:57.209Z,94531.09
2023-03-12T12:31:33.423Z,94535.69
2023-03-12T12:34:24.345Z,94531.53
2023-03-12T12:36:55.949Z,94532.59
2023-03-12T12:39:31.098Z,94528.09
2023-03-12T12:42:03.521Z,94522.53
2023-03-12T12:44:35.748Z,94527.25
2023-03-12T12:47:05.407Z,94525.47
2023-03-12T12:49:37.575Z,94527.13
2023-03-12T12:52:08.511Z,94523.94
2023-03-12T12:54:48.619Z,94523.19
2023-03-12T12:57:21.497Z,94533.06
2023-03-12T13:00:04.924Z,94523.75
2023-03-12T13:02:34.024Z,94523.09
2023-03-12T13:05:02.691Z,94531.19
2023-03-12T13:07:34.207Z,94525.94
2023-03-12T13:10:08.020Z,94526.81
2023-03-12T13:12:38.604Z,94522.88
2023-03-12T13:15:35.330Z,94533.81
2023-03-12T13:18:08.310Z,94534.47
2023-03-12T13:20:43.239Z,94535.28
2023-03-12T13:23:25.997Z,94538.75
2023-03-12T13:25:59.131Z,94532.50
2023-03-12T13:28:36.464Z,94534.06
2023-03-12T13:31:39.037Z,94529.13
2023-03-12T13:34:26.872Z,94549.44
2023-03-12T13:36:59.634Z,94550.84
2023-03-12T13:39:32.026Z,94546.47
2023-03-12T13:42:00.871Z,94546.22
2023-03-12T13:44:39.299Z,94554.03
2023-03-12T13:47:23.044Z,94557.91
2023-03-12T13:49:55.274Z,94561.69
2023-03-12T13:52:23.629Z,94557.22
2023-03-12T13:54:59.533Z,94557.22
2023-03-12T13:57:39.123Z,94554.44
2023-03-12T14:00:14.544Z,94558.22
2023-03-12T14:02:46.969Z,94541.34
2023-03-12T14:05:15.212Z,94548.13
2023-03-12T14:08:10.885Z,94563.34
2023-03-12T14:10:47.452Z,94547.72
2023-03-12T14:13:26.346Z,94552.50
2023-03-12T14:15:58.689Z,94552.66
2023-03-12T14:18:29.577Z,94563.59
2023-03-12T14:20:59.605Z,94564.16
2023-03-12T14:23:31.600Z,94553.22
2023-03-12T14:26:03.904Z,94550.34
2023-03-12T14:28:33.886Z,94553.97
2023-03-12T14:31:03.494Z,94548.53
2023-03-12T14:33:36.416Z,94546.41
2023-03-12T14:36:06.993Z,94543.47
2023-03-12T14:38:37.711Z,94533.66
2023-03-12T14:41:13.287Z,94536.03
2023-03-12T14:43:41.941Z,94538.53
2023-03-12T14:46:16.070Z,94536.22
2023-03-12T14:48:47.788Z,94543.69
2023-03-12T14:51:23.563Z,94528.47
2023-03-12T14:53:52.661Z,94544.53
2023-03-12T14:56:27.871Z,94539.34
2023-03-12T14:58:55.783Z,94552.00
2023-03-12T15:01:25.278Z,94552.25
2023-03-12T15:03:56.926Z,94548.72
2023-03-12T15:06:29.743Z,94545.94
2023-03-12T15:08:58.008Z,94545.34
2023-03-12T15:11:27.900Z,94541.56
2023-03-12T15:13:57.278Z,94547.06
2023-03-12T15:16:25.085Z,94553.06
2023-03-12T15:18:54.317Z,94547.97
2023-03-12T15:21:22.309Z,94547.72
2023-03-12T15:23:50.992Z,94548.31
2023-03-12T15:26:29.240Z,94553.47
2023-03-12T15:28:58.361Z,94547.31
2023-03-12T15:31:26.191Z,94561.38
2023-03-12T15:34:05.766Z,94556.78
2023-03-12T15:36:34.624Z,94556.94
2023-03-12T15:39:05.600Z,94565.34
2023-03-12T15:41:43.571Z,94557.19
2023-03-12T15:44:19.737Z,94560.72
2023-03-12T15:46:49.135Z,94555.69
2023-03-12T15:49:24.404Z,94555.78
2023-03-12T15:52:05.171Z,94557.94
2023-03-12T15:54:35.186Z,94565.75
2023-03-12T15:57:23.176Z,94562.31
2023-03-12T16:00:16.307Z,94565.50
2023-03-12T16:02:49.641Z,94559.41
2023-03-12T16:05:19.947Z,94555.47
2023-03-12T16:07:47.790Z,94567.28
2023-03-12T16:10:16.979Z,94560.22
2023-03-12T16:12:45.430Z,94554.81
2023-03-12T16:15:18.557Z,94565.66
2023-03-12T16:17:46.273Z,94561.28
2023-03-12T16:20:17.485Z,94553.88
2023-03-12T16:22:46.488Z,94559.38
2023-03-12T16:25:14.190Z,94560.00
2023-03-12T16:27:47.179Z,94549.38
2023-03-12T16:30:17.769Z,94557.91
2023-03-12T16:32:45.469Z,94551.81
2023-03-12T16:35:15.516Z,94561.28
2023-03-12T16:37:43.259Z,94568.31
2023-03-12T16:40:16.327Z,94567.91
2023-03-12T16:42:51.072Z,94567.25
2023-03-12T16:45:19.638Z,94563.59
2023-03-12T16:48:00.204Z,94567.03
2023-03-12T16:50:28.553Z,94573.06
2023-03-12T16:52:56.627Z,94576.03
2023-03-12T16:55:28.732Z,94574.03
2023-03-12T16:57:59.261Z,94578.31
2023-03-12T17:00:29.432Z,94579.41
2023-03-12T17:02:59.097Z,94593.44
2023-03-12T17:05:27.565Z,94599.81
2023-03-12T17:07:55.291Z,94593.56
2023-03-12T17:10:24.960Z,94591.97
2023-03-12T17:12:52.803Z,94602.19
2023-03-12T17:15:23.887Z,94606.56
2023-03-12T17:17:51.585Z,94609.19
2023-03-12T17:20:21.556Z,94600.47
2023-03-12T17:22:49.444Z,94598.47
2023-03-12T17:25:22.056Z,94599.84
2023-03-12T17:27:51.148Z,94597.03
2023-03-12T17:30:18.974Z,94596.66
2023-03-12T17:32:46.714Z,94608.69
2023-03-12T17:35:14.724Z,94606.22
2023-03-12T17:37:42.486Z,94611.16
2023-03-12T17:40:11.371Z,94611.97
2023-03-12T17:42:40.046Z,94611.97
2023-03-12T17:45:10.844Z,94608.69
2023-03-12T17:47:38.838Z,94605.13
2023-03-12T17:50:07.676Z,94605.63
2023-03-12T17:52:35.683Z,94603.41
2023-03-12T17:55:03.493Z,94611.19
2023-03-12T17:57:31.298Z,94608.59
2023-03-12T17:59:59.071Z,94609.88
2023-03-12T18:02:28.236Z,94601.88
2023-03-12T18:04:55.939Z,94607.75
2023-03-12T18:07:23.693Z,94611.78
2023-03-12T18:09:51.621Z,94619.53
2023-03-12T18:12:19.400Z,94621.88
2023-03-12T18:14:47.179Z,94629.19
2023-03-12T18:17:14.855Z,94624.94
2023-03-12T18:19:43.990Z,94637.31
2023-03-12T18:22:14.132Z,94628.38
2023-03-12T18:24:41.807Z,94632.81
2023-03-12T18:27:09.794Z,94636.00
2023-03-12T18:29:37.479Z,94624.34
2023-03-12T18:32:05.512Z,94631.88
2023-03-12T18:34:33.175Z,94625.03
2023-03-12T18:37:02.177Z,94617.38
2023-03-12T18:39:29.872Z,94611.97
2023-03-12T18:41:57.425Z,94620.34
2023-03-12T18:44:25.124Z,94621.16
2023-03-12T18:46:53.912Z,94617.03
2023-03-12T18:49:21.821Z,94609.97
2023-03-12T18:51:53.397Z,94619.38
2023-03-12T18:54:24.574Z,94623.97
2023-03-12T18:56:52.477Z,94631.13
2023-03-12T18:59:20.121Z,94633.84
2023-03-12T19:01:47.780Z,94640.31
2023-03-12T19:04:18.038Z,94639.25
2023-03-12T19:06:51.228Z,94633.25
2023-03-12T19:09:19.712Z,94633.72
2023-03-12T19:11:49.192Z,94638.06
2023-03-12T19:14:16.842Z,94642.91
2023-03-12T19:16:44.562Z,94640.19
2023-03-12T19:19:12.502Z,94643.13
2023-03-12T19:21:40.228Z,94642.06
2023-03-12T19:24:07.947Z,94651.47
2023-03-12T19:26:35.620Z,94651.94
2023-03-12T19:29:04.623Z,94650.28
2023-03-12T19:31:32.346Z,94655.31
2023-03-12T19:34:00.172Z,94647.44
2023-03-12T19:36:28.215Z,94660.16
2023-03-12T19:38:56.236Z,94649.78
2023-03-12T19:41:24.228Z,94648.38
2023-03-12T19:44:53.048Z,94651.91
2023-03-12T19:47:22.280Z,94653.78
2023-03-12T19:49:49.981Z,94650.72
2023-03-12T19:52:19.301Z,94650.94
2023-03-12T19:54:54.670Z,94660.09
2023-03-12T19:57:30.753Z,94666.56
2023-03-12T20:00:00.198Z,94670.34
2023-03-12T20:02:27.992Z,94671.38
2023-03-12T20:04:55.849Z,94678.91
2023-03-12T20:07:23.990Z,94673.50
2023-03-12T20:09:52.456Z,94680.56
2023-03-12T20:12:20.055Z,94672.91
2023-03-12T20:14:47.914Z,94670.78
2023-03-12T20:17:17.120Z,94675.63
2023-03-12T20:19:44.778Z,94667.50
2023-03-12T20:22:12.572Z,94668.09
2023-03-12T20:24:40.250Z,94663.50
2023-03-12T20:27:08.141Z,94667.50
2023-03-12T20:29:35.827Z,94668.09
2023-03-12T20:32:03.631Z,94664.34
2023-03-12T20:34:32.646Z,94671.38
2023-03-12T20:37:00.268Z,94671.75
2023-03-12T20:39:28.135Z,94666.56
2023-03-12T20:41:55.846Z,94666.09
2023-03-12T20:44:23.850Z,94665.06
2023-03-12T20:46:51.569Z,94657.53
2023-03-12T20:49:19.442Z,94666.69
2023-03-12T20:51:48.543Z,94658.84
2023-03-12T20:54:16.200Z,94663.53
2023-03-12T20:56:44.838Z,94667.91
2023-03-12T20:59:12.611Z,94668.25
2023-03-12T21:01:40.393Z,94671.56
2023-03-12T21:04:08.188Z,94667.00
2023-03-12T21:06:35.871Z,94663.66
2023-03-12T21:09:05.074Z,94667.44
2023-03-12T21:11:32.711Z,94667.00
2023-03-12T21:14:00.379Z,94674.88
2023-03-12T21:16:28.311Z,94661.09
2023-03-12T21:18:57.054Z,94666.06
2023-03-12T21:21:25.076Z,94662.88
2023-03-12T21:23:52.831Z,94664.78
2023-03-12T21:26:21.988Z,94661.63
2023-03-12T21:28:49.779Z,94657.59
2023-03-12T21:31:18.458Z,94664.22
2023-03-12T21:33:46.317Z,94672.94
2023-03-12T21:36:15.315Z,94673.97
2023-03-12T21:38:43.774Z,94682.22
2023-03-12T21:41:13.182Z,94679.50
2023-03-12T21:43:42.796Z,94678.94
2023-03-12T21:46:11.787Z,94678.47
2023-03-12T21:48:40.064Z,94685.78
2023-03-12T21:51:09.749Z,94674.94
2023-03-12T21:53:37.847Z,94676.34
2023-03-12T21:56:06.916Z,94678.25
2023-03-12T21:58:35.420Z,94685.06
2023-03-12T22:01:05.675Z,94680.72
2023-03-12T22:03:33.497Z,94672.59
2023-03-12T22:06:01.247Z,94672.13
2023-03-12T22:08:28.952Z,94667.31
2023-03-12T22:10:56.596Z,94672.50
2023-03-12T22:13:24.653Z,94674.38
2023-03-12T22:15:54.958Z,94666.50
2023-03-12T22:18:24.323Z,94664.38
2023-03-12T22:20:52.914Z,94663.56
2023-03-12T22:23:20.948Z,94661.91
2023-03-12T22:25:48.756Z,94665.19
2023-03-12T22:28:16.977Z,94668.13
2023-03-12T22:30:44.993Z,94673.53
2023-03-12T22:33:13.047Z,94671.41
2023-03-12T22:35:45.849Z,94666.25
2023-03-12T22:38:14.008Z,94663.56
2023-03-12T22:40:42.123Z,94667.44
2023-03-12T22:43:09.790Z,94658.50
2023-03-12T22:45:37.585Z,94659.31
2023-03-12T22:48:05.500Z,94660.84
2023-03-12T22:50:33.599Z,94656.47
2023-03-12T22:53:02.859Z,94651.28
2023-03-12T22:55:30.581Z,94646.69
2023-03-12T22:57:58.189Z,94650.03
2023-03-12T23:00:26.668Z,94648.59
2023-03-12T23:02:54.339Z,94644.00
2023-03-12T23:05:22.076Z,94642.94
2023-03-12T23:07:50.117Z,94624.81
2023-03-12T23:10:19.984Z,94628.59
2023-03-12T23:12:47.638Z,94626.69
2023-03-12T23:15:15.232Z,94621.75
2023-03-12T23:17:42.986Z,94616.78
2023-03-12T23:20:13.466Z,94611.25
2023-03-12T23:22:41.098Z,94618.56
2023-03-12T23:25:09.631Z,94610.91
2023-03-12T23:27:38.660Z,94616.19
2023-03-12T23:30:07.542Z,94603.94
2023-03-12T23:32:35.877Z,94615.47
2023-03-12T23:35:03.564Z,94603.81
2023-03-12T23:37:31.471Z,94603.00
2023-03-12T23:39:59.133Z,94603.69
2023-03-12T23:42:27.807Z,94599.22
2023-03-12T23:44:56.920Z,94604.03
2023-03-12T23:47:24.714Z,94598.03
2023-03-12T23:49:52.415Z,94598.72
2023-03-12T23:52:20.137Z,94592.34
2023-03-12T23:54:47.928Z,94578.69
2023-03-12T23:57:15.568Z,94577.50
2023-03-12T23:59:43.309Z,94569.25
